createdAt,value
2023-02-09T00:02:19.530Z,11.12
2023-02-09T00:04:56.797Z,11.13
2023-02-09T00:07:25.098Z,11.14
2023-02-09T00:09:54.609Z,11.12
2023-02-09T00:12:40.005Z,11.08
2023-02-09T00:15:09.643Z,11.03
2023-02-09T00:17:38.857Z,10.94
2023-02-09T00:20:10.331Z,10.83
2023-02-09T00:22:38.387Z,10.75
2023-02-09T00:25:07.331Z,10.67
2023-02-09T00:27:36.788Z,10.62
2023-02-09T00:30:06.307Z,10.56
2023-02-09T00:32:34.729Z,10.57
2023-02-09T00:35:02.876Z,10.58
2023-02-09T00:37:32.421Z,10.61
2023-02-09T00:40:00.621Z,10.67
2023-02-09T00:42:28.689Z,10.72
2023-02-09T00:44:56.942Z,10.78
2023-02-09T00:47:25.245Z,10.83
2023-02-09T00:49:53.358Z,10.85
2023-02-09T00:52:21.408Z,10.81
2023-02-09T00:54:50.886Z,10.81
2023-02-09T00:57:19.373Z,10.82
2023-02-09T00:59:47.479Z,10.86
2023-02-09T01:02:15.560Z,10.86
2023-02-09T01:04:44.232Z,10.85
2023-02-09T01:07:12.320Z,10.82
2023-02-09T01:09:40.381Z,10.78
2023-02-09T01:12:09.986Z,10.74
2023-02-09T01:14:39.359Z,10.81
2023-02-09T01:17:07.526Z,10.87
2023-02-09T01:19:36.095Z,10.92
2023-02-09T01:22:04.821Z,10.99
2023-02-09T01:24:33.053Z,11.05
2023-02-09T01:27:01.177Z,11.04
2023-02-09T01:29:30.899Z,11.04
2023-02-09T01:31:59.187Z,11.05
2023-02-09T01:34:27.693Z,11.01
2023-02-09T01:36:55.843Z,11.05
2023-02-09T01:39:24.299Z,11.08
2023-02-09T01:41:52.468Z,11.16
2023-02-09T01:44:57.871Z,11.24
2023-02-09T01:47:27.396Z,11.29
2023-02-09T01:49:56.870Z,11.40
2023-02-09T01:52:28.713Z,11.48
2023-02-09T01:55:01.773Z,11.55
2023-02-09T01:57:33.849Z,11.54
2023-02-09T02:00:06.635Z,11.57
2023-02-09T02:02:38.478Z,11.57
2023-02-09T02:05:09.473Z,11.59
2023-02-09T02:07:43.169Z,11.58
2023-02-09T02:10:11.463Z,11.57
2023-02-09T02:12:40.234Z,11.53
2023-02-09T02:15:09.034Z,11.50
2023-02-09T02:17:52.908Z,11.53
2023-02-09T02:20:56.231Z,11.56
2023-02-09T02:23:31.817Z,11.64
2023-02-09T02:26:26.690Z,11.69
2023-02-09T02:29:15.067Z,11.72
2023-02-09T02:32:04.287Z,11.72
2023-02-09T02:34:42.333Z,11.69
2023-02-09T02:37:20.115Z,11.72
2023-02-09T02:39:57.718Z,11.72
2023-02-09T02:42:53.120Z,11.75
2023-02-09T02:45:39.809Z,11.80
2023-02-09T02:48:19.679Z,11.90
2023-02-09T02:50:54.670Z,11.97
2023-02-09T02:53:29.456Z,12.07
2023-02-09T02:56:06.425Z,12.18
2023-02-09T02:58:37.560Z,12.25
2023-02-09T03:01:10.122Z,12.29
2023-02-09T03:03:43.088Z,12.36
2023-02-09T03:06:12.296Z,12.42
2023-02-09T03:08:53.115Z,12.49
2023-02-09T03:11:27.241Z,12.58
2023-02-09T03:14:19.953Z,12.65
2023-02-09T03:16:53.325Z,12.69
2023-02-09T03:19:36.923Z,12.74
2023-02-09T03:22:08.947Z,12.80
2023-02-09T03:24:42.333Z,12.87
2023-02-09T03:27:16.737Z,12.94
2023-02-09T03:29:47.575Z,13.01
2023-02-09T03:32:17.416Z,13.06
2023-02-09T03:34:47.419Z,13.10
2023-02-09T03:37:15.647Z,13.15
2023-02-09T03:39:43.865Z,13.22
2023-02-09T03:42:12.006Z,13.26
2023-02-09T03:44:40.098Z,13.31
2023-02-09T03:47:10.327Z,13.30
2023-02-09T03:49:40.744Z,13.33
2023-02-09T03:52:12.108Z,13.35
2023-02-09T03:54:40.644Z,13.41
2023-02-09T03:57:08.937Z,13.47
2023-02-09T03:59:37.901Z,13.48
2023-02-09T04:02:08.914Z,13.51
2023-02-09T04:04:37.838Z,13.54
2023-02-09T04:07:06.166Z,13.57
2023-02-09T04:09:37.599Z,13.63
2023-02-09T04:12:05.954Z,13.68
2023-02-09T04:14:33.911Z,13.72
2023-02-09T04:17:01.886Z,13.76
2023-02-09T04:19:29.905Z,13.77
2023-02-09T04:21:57.901Z,13.78
2023-02-09T04:24:26.165Z,13.75
2023-02-09T04:26:55.534Z,13.80
2023-02-09T04:29:23.608Z,13.77
2023-02-09T04:31:51.697Z,13.79
2023-02-09T04:34:21.410Z,13.79
2023-02-09T04:36:49.472Z,13.81
2023-02-09T04:39:18.023Z,13.83
2023-02-09T04:41:46.078Z,13.85
2023-02-09T04:44:15.690Z,13.85
2023-02-09T04:46:45.639Z,13.90
2023-02-09T04:49:13.916Z,13.96
2023-02-09T04:51:41.989Z,13.97
2023-02-09T04:54:10.203Z,13.97
2023-02-09T04:56:38.955Z,13.97
2023-02-09T04:59:24.353Z,13.99
2023-02-09T05:01:53.851Z,14.01
2023-02-09T05:04:21.904Z,14.07
2023-02-09T05:06:50.427Z,14.08
2023-02-09T05:09:18.496Z,14.13
2023-02-09T05:11:46.754Z,14.16
2023-02-09T05:14:14.800Z,14.17
2023-02-09T05:16:42.946Z,14.15
2023-02-09T05:19:12.494Z,14.18
2023-02-09T05:21:41.036Z,14.15
2023-02-09T05:24:09.117Z,14.11
2023-02-09T05:26:37.450Z,14.09
2023-02-09T05:29:05.792Z,14.05
2023-02-09T05:31:34.249Z,14.06
2023-02-09T05:34:02.363Z,14.02
2023-02-09T05:36:31.720Z,14.01
2023-02-09T05:38:59.745Z,13.97
2023-02-09T05:41:44.926Z,13.91
2023-02-09T05:44:12.933Z,13.86
2023-02-09T05:46:41.042Z,13.84
2023-02-09T05:49:09.081Z,13.77
2023-02-09T05:51:38.574Z,13.75
2023-02-09T05:54:06.729Z,13.74
2023-02-09T05:56:35.716Z,13.71
2023-02-09T05:59:04.735Z,13.70
2023-02-09T06:01:33.036Z,13.69
2023-02-09T06:04:01.075Z,13.64
2023-02-09T06:06:29.039Z,13.66
2023-02-09T06:08:58.308Z,13.63
2023-02-09T06:11:26.381Z,13.62
2023-02-09T06:13:54.409Z,13.62
2023-02-09T06:16:22.615Z,13.58
2023-02-09T06:18:50.577Z,13.59
2023-02-09T06:21:19.208Z,13.58
2023-02-09T06:23:47.338Z,13.58
2023-02-09T06:26:18.301Z,13.57
2023-02-09T06:28:46.868Z,13.58
2023-02-09T06:31:15.246Z,13.60
2023-02-09T06:33:43.537Z,13.62
2023-02-09T06:36:12.011Z,13.64
2023-02-09T06:38:40.294Z,13.67
2023-02-09T06:41:08.597Z,13.70
2023-02-09T06:43:38.021Z,13.67
2023-02-09T06:46:09.777Z,13.70
2023-02-09T06:48:38.329Z,13.62
2023-02-09T06:51:09.662Z,13.56
2023-02-09T06:53:38.119Z,13.56
2023-02-09T06:56:06.711Z,13.58
2023-02-09T06:58:34.992Z,13.59
2023-02-09T07:01:05.308Z,13.56
2023-02-09T07:03:34.407Z,13.49
2023-02-09T07:06:07.224Z,13.44
2023-02-09T07:08:35.683Z,13.39
2023-02-09T07:11:04.607Z,13.35
2023-02-09T07:13:33.188Z,13.31
2023-02-09T07:16:02.583Z,13.28
2023-02-09T07:18:32.301Z,13.20
2023-02-09T07:21:02.001Z,13.14
2023-02-09T07:23:30.829Z,13.09
2023-02-09T07:26:03.150Z,13.05
2023-02-09T07:28:31.401Z,13.01
2023-02-09T07:31:04.550Z,12.97
2023-02-09T07:33:34.659Z,12.96
2023-02-09T07:36:05.928Z,12.95
2023-02-09T07:38:34.946Z,12.95
2023-02-09T07:41:05.080Z,12.97
2023-02-09T07:43:33.826Z,13.00
2023-02-09T07:46:02.772Z,13.02
2023-02-09T07:48:31.458Z,13.03
2023-02-09T07:51:01.394Z,13.05
2023-02-09T07:53:30.366Z,13.05
2023-02-09T07:55:58.879Z,13.04
2023-02-09T07:58:26.932Z,13.03
2023-02-09T08:00:54.998Z,13.04
2023-02-09T08:03:25.895Z,13.05
2023-02-09T08:05:59.835Z,13.08
2023-02-09T08:08:29.301Z,13.12
2023-02-09T08:10:59.389Z,13.14
2023-02-09T08:13:31.426Z,13.16
2023-02-09T08:16:04.829Z,13.15
2023-02-09T08:18:37.396Z,13.13
2023-02-09T08:21:07.795Z,13.10
2023-02-09T08:23:39.526Z,13.10
2023-02-09T08:26:11.525Z,13.09
2023-02-09T08:28:44.964Z,13.12
2023-02-09T08:31:13.781Z,13.14
2023-02-09T08:33:42.022Z,13.15
2023-02-09T08:36:10.530Z,13.19
2023-02-09T08:38:40.504Z,13.20
2023-02-09T08:41:10.834Z,13.24
2023-02-09T08:43:39.145Z,13.25
2023-02-09T08:46:09.653Z,13.25
2023-02-09T08:48:43.861Z,13.30
2023-02-09T08:51:14.006Z,13.32
2023-02-09T08:53:46.239Z,13.37
2023-02-09T08:56:14.285Z,13.44
2023-02-09T08:58:42.420Z,13.48
2023-02-09T09:01:10.526Z,13.54
2023-02-09T09:03:38.669Z,13.59
2023-02-09T09:06:08.431Z,13.60
2023-02-09T09:08:38.617Z,13.61
2023-02-09T09:11:12.968Z,13.64
2023-02-09T09:13:41.803Z,13.64
2023-02-09T09:16:15.691Z,13.66
2023-02-09T09:18:44.675Z,13.70
2023-02-09T09:21:13.199Z,13.73
2023-02-09T09:23:41.224Z,13.77
2023-02-09T09:26:10.705Z,13.79
2023-02-09T09:28:39.312Z,13.79
2023-02-09T09:31:11.607Z,13.80
2023-02-09T09:33:40.176Z,13.76
2023-02-09T09:36:09.207Z,13.78
2023-02-09T09:38:40.549Z,13.78
2023-02-09T09:41:26.839Z,13.81
2023-02-09T09:43:55.998Z,13.78
2023-02-09T09:46:32.080Z,13.73
2023-02-09T09:49:01.340Z,13.71
2023-02-09T09:51:38.154Z,13.68
2023-02-09T09:54:09.373Z,13.68
2023-02-09T09:56:41.167Z,13.71
2023-02-09T09:59:20.056Z,13.70
2023-02-09T10:01:50.384Z,13.72
2023-02-09T10:04:19.838Z,13.70
2023-02-09T10:06:53.694Z,13.63
2023-02-09T10:09:30.480Z,13.59
2023-02-09T10:12:13.361Z,13.53
2023-02-09T10:14:41.417Z,13.48
2023-02-09T10:17:09.715Z,13.44
2023-02-09T10:19:38.034Z,13.41
2023-02-09T10:22:12.144Z,13.42
2023-02-09T10:24:42.140Z,13.37
2023-02-09T10:27:16.323Z,13.38
2023-02-09T10:29:44.551Z,13.30
2023-02-09T10:32:17.997Z,13.25
2023-02-09T10:34:49.016Z,13.25
2023-02-09T10:37:23.698Z,13.26
2023-02-09T10:40:01.676Z,13.27
2023-02-09T10:42:34.037Z,13.28
2023-02-09T10:45:08.560Z,13.29
2023-02-09T10:47:36.618Z,13.29
2023-02-09T10:50:17.242Z,13.23
2023-02-09T10:52:56.601Z,13.20
2023-02-09T10:55:29.214Z,13.18
2023-02-09T10:58:23.230Z,13.15
2023-02-09T11:00:59.238Z,13.12
2023-02-09T11:03:27.667Z,13.13
2023-02-09T11:06:01.455Z,13.13
2023-02-09T11:08:45.481Z,13.14
2023-02-09T11:11:33.140Z,13.19
2023-02-09T11:14:03.374Z,13.23
2023-02-09T11:16:58.105Z,13.28
2023-02-09T11:19:51.545Z,13.31
2023-02-09T11:22:29.671Z,13.31
2023-02-09T11:25:07.908Z,13.33
2023-02-09T11:27:55.913Z,13.33
2023-02-09T11:30:36.839Z,13.33
2023-02-09T11:33:12.153Z,13.36
2023-02-09T11:35:49.442Z,13.37
2023-02-09T11:38:21.914Z,13.40
2023-02-09T11:40:55.101Z,13.40
2023-02-09T11:43:28.921Z,13.45
2023-02-09T11:46:02.047Z,13.44
2023-02-09T11:48:33.005Z,13.52
2023-02-09T11:51:06.579Z,13.54
2023-02-09T11:53:42.584Z,13.61
2023-02-09T11:56:13.658Z,13.65
2023-02-09T11:58:51.180Z,13.76
2023-02-09T12:01:31.237Z,13.80
2023-02-09T12:04:06.905Z,13.86
2023-02-09T12:06:45.361Z,13.98
2023-02-09T12:09:25.911Z,14.13
2023-02-09T12:12:02.966Z,14.28
2023-02-09T12:14:49.133Z,14.46
2023-02-09T12:17:21.841Z,14.54
2023-02-09T12:19:58.653Z,14.56
2023-02-09T12:22:53.677Z,14.53
2023-02-09T12:25:33.157Z,14.39
2023-02-09T12:28:42.736Z,14.22
2023-02-09T12:31:15.173Z,14.13
2023-02-09T12:34:21.612Z,14.21
2023-02-09T12:37:19.174Z,14.32
2023-02-09T12:40:23.967Z,14.48
2023-02-09T12:43:27.368Z,14.56
2023-02-09T12:46:20.162Z,14.54
2023-02-09T12:49:04.614Z,14.43
2023-02-09T12:51:48.718Z,14.33
2023-02-09T12:54:41.341Z,14.23
2023-02-09T12:57:48.646Z,14.15
2023-02-09T13:00:58.279Z,14.18
2023-02-09T13:03:27.760Z,14.17
2023-02-09T13:06:00.878Z,14.26
2023-02-09T13:08:35.246Z,14.38
2023-02-09T13:11:19.219Z,14.44
2023-02-09T13:13:53.697Z,14.50
2023-02-09T13:16:51.703Z,14.51
2023-02-09T13:19:47.036Z,14.48
2023-02-09T13:22:28.676Z,14.51
2023-02-09T13:25:00.545Z,14.56
2023-02-09T13:27:33.871Z,14.62
2023-02-09T13:30:01.895Z,14.59
2023-02-09T13:32:43.177Z,14.45
2023-02-09T13:35:20.337Z,14.33
2023-02-09T13:37:50.756Z,14.35
2023-02-09T13:40:23.958Z,14.48
2023-02-09T13:42:56.756Z,14.67
2023-02-09T13:45:26.852Z,14.84
2023-02-09T13:47:55.556Z,14.98
2023-02-09T13:50:26.046Z,15.14
2023-02-09T13:52:54.117Z,15.29
2023-02-09T13:55:24.493Z,15.39
2023-02-09T13:57:59.531Z,15.63
2023-02-09T14:00:30.738Z,15.69
2023-02-09T14:03:01.567Z,15.82
2023-02-09T14:05:39.428Z,15.84
2023-02-09T14:08:08.075Z,15.81
2023-02-09T14:10:36.682Z,15.84
2023-02-09T14:13:13.176Z,15.85
2023-02-09T14:16:01.591Z,15.86
2023-02-09T14:18:32.866Z,15.81
2023-02-09T14:21:15.070Z,15.73
2023-02-09T14:23:44.857Z,15.72
2023-02-09T14:26:23.746Z,15.56
2023-02-09T14:28:55.831Z,15.28
2023-02-09T14:31:26.643Z,15.10
2023-02-09T14:33:57.013Z,14.95
2023-02-09T14:36:30.517Z,14.85
2023-02-09T14:39:11.233Z,14.91
2023-02-09T14:41:40.146Z,14.80
2023-02-09T14:44:22.136Z,14.79
2023-02-09T14:46:52.393Z,15.14
2023-02-09T14:49:22.537Z,14.97
2023-02-09T14:51:52.841Z,15.41
2023-02-09T14:54:26.739Z,15.51
2023-02-09T14:56:58.481Z,15.82
2023-02-09T14:59:28.867Z,16.09
2023-02-09T15:01:57.004Z,15.90
2023-02-09T15:04:25.098Z,15.93
2023-02-09T15:07:02.570Z,16.11
2023-02-09T15:09:38.091Z,16.50
2023-02-09T15:12:07.465Z,16.88
2023-02-09T15:14:42.694Z,17.29
2023-02-09T15:17:16.034Z,17.40
2023-02-09T15:19:44.556Z,17.83
2023-02-09T15:22:15.352Z,18.07
2023-02-09T15:24:44.124Z,17.68
2023-02-09T15:27:18.565Z,17.16
2023-02-09T15:29:48.107Z,16.66
2023-02-09T15:32:18.417Z,16.18
2023-02-09T15:34:46.773Z,15.75
2023-02-09T15:37:20.998Z,15.31
2023-02-09T15:39:50.916Z,14.93
2023-02-09T15:42:37.875Z,14.62
2023-02-09T15:45:36.127Z,14.38
2023-02-09T15:48:04.916Z,14.24
2023-02-09T15:50:34.379Z,14.12
2023-02-09T15:53:05.509Z,14.04
2023-02-09T15:55:34.852Z,13.93
2023-02-09T15:58:05.290Z,13.86
2023-02-09T16:00:34.674Z,13.85
2023-02-09T16:03:16.007Z,13.84
2023-02-09T16:05:44.547Z,13.91
2023-02-09T16:08:19.435Z,13.94
2023-02-09T16:10:48.646Z,13.99
2023-02-09T16:13:18.226Z,13.99
2023-02-09T16:15:49.493Z,13.97
2023-02-09T16:18:17.723Z,13.94
2023-02-09T16:20:48.772Z,13.86
2023-02-09T16:23:21.234Z,13.80
2023-02-09T16:25:50.767Z,13.83
2023-02-09T16:28:19.016Z,13.84
2023-02-09T16:30:54.458Z,13.94
2023-02-09T16:33:23.867Z,13.90
2023-02-09T16:35:55.001Z,13.88
2023-02-09T16:38:24.129Z,13.80
2023-02-09T16:40:52.717Z,13.73
2023-02-09T16:43:22.028Z,13.68
2023-02-09T16:46:03.191Z,13.74
2023-02-09T16:48:34.645Z,13.71
2023-02-09T16:51:03.394Z,13.67
2023-02-09T16:53:34.167Z,13.62
2023-02-09T16:56:04.835Z,13.59
2023-02-09T16:58:33.150Z,13.55
2023-02-09T17:01:02.816Z,13.48
2023-02-09T17:03:34.830Z,13.43
2023-02-09T17:06:03.493Z,13.34
2023-02-09T17:08:33.107Z,13.23
2023-02-09T17:11:02.631Z,13.11
2023-02-09T17:13:30.984Z,12.98
2023-02-09T17:16:03.238Z,12.83
2023-02-09T17:18:35.181Z,12.71
2023-02-09T17:21:06.985Z,12.56
2023-02-09T17:23:35.526Z,12.43
2023-02-09T17:26:03.617Z,12.31
2023-02-09T17:28:32.435Z,12.21
2023-02-09T17:31:03.668Z,12.08
2023-02-09T17:33:34.095Z,12.01
2023-02-09T17:36:25.194Z,11.88
2023-02-09T17:38:51.973Z,11.79
2023-02-09T17:41:22.256Z,11.71
2023-02-09T17:43:52.677Z,11.62
2023-02-09T17:46:22.353Z,11.55
2023-02-09T17:48:50.373Z,11.52
2023-02-09T17:51:21.869Z,11.46
2023-02-09T17:53:50.239Z,11.40
2023-02-09T17:56:19.441Z,11.35
2023-02-09T17:58:48.078Z,11.29
2023-02-09T18:01:27.161Z,11.21
2023-02-09T18:03:55.825Z,11.08
2023-02-09T18:06:30.019Z,10.94
2023-02-09T18:08:57.979Z,10.82
2023-02-09T18:11:41.161Z,10.66
2023-02-09T18:14:11.396Z,10.52
2023-02-09T18:16:41.399Z,10.43
2023-02-09T18:19:09.729Z,10.38
2023-02-09T18:21:38.040Z,10.30
2023-02-09T18:24:07.178Z,10.18
2023-02-09T18:29:32.853Z,9.92
2023-02-09T18:32:04.049Z,9.81
2023-02-09T18:34:32.390Z,9.69
2023-02-09T18:37:00.542Z,9.54
2023-02-09T18:39:28.552Z,9.41
2023-02-09T18:41:57.859Z,9.29
2023-02-09T18:44:29.417Z,9.19
2023-02-09T18:46:58.397Z,9.10
2023-02-09T18:49:27.838Z,8.96
2023-02-09T18:51:57.072Z,8.87
2023-02-09T18:54:26.158Z,8.77
2023-02-09T18:56:56.119Z,8.65
2023-02-09T18:59:24.388Z,8.55
2023-02-09T19:01:52.480Z,8.45
2023-02-09T19:04:20.540Z,8.34
2023-02-09T19:06:52.498Z,8.23
2023-02-09T19:09:21.190Z,8.14
2023-02-09T19:14:56.385Z,7.93
2023-02-09T19:17:25.114Z,7.84
2023-02-09T19:19:53.406Z,7.77
2023-02-09T19:22:25.075Z,7.71
2023-02-09T19:24:56.256Z,7.67
2023-02-09T19:27:26.194Z,7.66
2023-02-09T19:29:56.294Z,7.64
2023-02-09T19:32:36.562Z,7.63
2023-02-09T19:35:18.566Z,7.63
2023-02-09T19:37:51.613Z,7.63
2023-02-09T19:40:27.754Z,7.59
2023-02-09T19:42:56.190Z,7.56
2023-02-09T19:45:24.316Z,7.51
2023-02-09T19:47:52.617Z,7.46
2023-02-09T19:50:21.061Z,7.40
2023-02-09T19:52:50.575Z,7.39
2023-02-09T19:55:18.832Z,7.35
2023-02-09T19:57:46.966Z,7.33
2023-02-09T20:00:18.202Z,7.30
2023-02-09T20:02:46.556Z,7.29
2023-02-09T20:05:14.613Z,7.27
2023-02-09T20:07:42.802Z,7.26
2023-02-09T20:10:14.039Z,7.23
2023-02-09T20:12:42.066Z,7.20
2023-02-09T20:15:10.130Z,7.21
2023-02-09T20:17:38.166Z,7.17
2023-02-09T20:20:06.922Z,7.17
2023-02-09T20:22:36.813Z,7.17
2023-02-09T20:25:05.455Z,7.18
2023-02-09T20:27:35.637Z,7.16
2023-02-09T20:30:04.134Z,7.13
2023-02-09T20:32:32.315Z,7.10
2023-02-09T20:35:00.810Z,7.07
2023-02-09T20:37:29.648Z,7.03
2023-02-09T20:39:57.881Z,7.01
2023-02-09T20:42:43.409Z,6.98
2023-02-09T20:45:32.304Z,6.92
2023-02-09T20:48:00.300Z,6.89
2023-02-09T20:50:28.600Z,6.85
2023-02-09T20:52:56.777Z,6.82
2023-02-09T20:55:24.888Z,6.80
2023-02-09T20:57:53.260Z,6.80
2023-02-09T21:00:24.564Z,6.81
2023-02-09T21:02:53.332Z,6.81
2023-02-09T21:05:21.359Z,6.84
2023-02-09T21:07:52.395Z,6.85
2023-02-09T21:10:20.548Z,6.85
2023-02-09T21:12:48.986Z,6.79
2023-02-09T21:15:19.755Z,6.74
2023-02-09T21:17:51.743Z,6.66
2023-02-09T21:20:20.056Z,6.62
2023-02-09T21:22:50.466Z,6.61
2023-02-09T21:25:20.688Z,6.63
2023-02-09T21:27:50.315Z,6.64
2023-02-09T21:30:20.782Z,6.66
2023-02-09T21:32:50.943Z,6.65
2023-02-09T21:35:19.491Z,6.62
2023-02-09T21:37:48.261Z,6.61
2023-02-09T21:40:16.983Z,6.58
2023-02-09T21:42:45.743Z,6.56
2023-02-09T21:45:14.508Z,6.54
2023-02-09T21:47:43.427Z,6.55
2023-02-09T21:50:14.789Z,6.51
2023-02-09T21:52:43.438Z,6.52
2023-02-09T21:55:13.567Z,6.53
2023-02-09T21:57:43.591Z,6.52
2023-02-09T22:00:15.554Z,6.49
2023-02-09T22:02:43.764Z,6.43
2023-02-09T22:05:13.563Z,6.41
2023-02-09T22:07:41.613Z,6.41
2023-02-09T22:10:10.034Z,6.35
2023-02-09T22:12:38.821Z,6.29
2023-02-09T22:15:07.643Z,6.23
2023-02-09T22:17:37.842Z,6.19
2023-02-09T22:20:06.604Z,6.17
2023-02-09T22:22:36.590Z,6.10
2023-02-09T22:25:04.687Z,6.06
2023-02-09T22:27:32.776Z,6.01
2023-02-09T22:30:00.725Z,5.97
2023-02-09T22:32:31.945Z,5.92
2023-02-09T22:34:59.996Z,5.90
2023-02-09T22:37:28.028Z,5.86
2023-02-09T22:39:57.583Z,5.85
2023-02-09T22:42:25.833Z,5.88
2023-02-09T22:44:53.882Z,5.90
2023-02-09T22:47:21.863Z,5.91
2023-02-09T22:49:50.057Z,5.93
2023-02-09T22:52:18.199Z,5.94
2023-02-09T22:54:46.301Z,5.94
2023-02-09T22:57:16.000Z,5.94
2023-02-09T22:59:44.267Z,5.98
2023-02-09T23:02:12.762Z,5.94
2023-02-09T23:04:40.838Z,5.95
2023-02-09T23:07:08.802Z,5.94
2023-02-09T23:09:38.266Z,5.96
2023-02-09T23:12:07.049Z,6.00
2023-02-09T23:14:36.578Z,5.99
2023-02-09T23:17:04.631Z,5.99
2023-02-09T23:19:32.760Z,5.98
2023-02-09T23:22:01.054Z,5.98
2023-02-09T23:24:29.373Z,5.97
2023-02-09T23:26:57.864Z,5.96
2023-02-09T23:29:25.986Z,5.97
2023-02-09T23:31:55.454Z,5.99
2023-02-09T23:34:24.463Z,6.01
2023-02-09T23:36:52.697Z,6.03
2023-02-09T23:39:22.694Z,6.02
2023-02-09T23:41:50.938Z,6.01
2023-02-09T23:44:19.581Z,5.99
2023-02-09T23:46:47.700Z,5.98
2023-02-09T23:49:17.121Z,5.96
2023-02-09T23:51:45.596Z,5.92
2023-02-09T23:54:13.930Z,5.89
2023-02-09T23:56:41.957Z,5.87
2023-02-09T23:59:12.658Z,5.86
